TAF KOTM
KOTM 081740Z 0818/0918 VRB03KT P6SM FEW250 FM090800 14009KT P6SM OVC200 FM091000 14012KT P6SM OVC200 WS020/19035KT FM091100 15012KT P6SM OVC150 FM091600 18009KT P6SM SCT080=
METAR KOTM
WC KOTM
WS KOTM
WV KOTM